Time;durP1;ratioP1;P1;durP2;ratioP2;P2;SDS_P1;SDS_P2;PMS_P1;PMS_P2;Temp;Humidity;BMP_temperature;BMP_pressure;BME280_temperature;BME280_humidity;BME280_pressure;Samples;Min_cycle;Max_cycle;Signal;HPM_P1;HPM_P2
2020/12/10 00:00:14;;;;;;;21.48;10.98;;;;;;;-5.20;64.51;100234.73;355521;110;1963954;-73
2020/12/10 00:01:20;;;;;;;24.96;11.91;;;;;;;-5.19;64.35;100237.25;356478;110;1963958;-73
2020/12/10 00:02:36;;;;;;;20.41;9.72;;;;;;;-5.17;64.28;100238.02;335267;113;2367012;-74
2020/12/10 00:03:41;;;;;;;19.86;9.63;;;;;;;-5.18;64.26;100231.07;352140;111;1963896;-72
2020/12/10 00:04:46;;;;;;;24.56;10.97;;;;;;;-5.19;64.28;100234.63;352999;114;1962014;-73
2020/12/10 00:05:52;;;;;;;23.82;10.99;;;;;;;-5.21;64.35;100235.66;351344;114;1963043;-73
2020/12/10 00:06:57;;;;;;;27.29;12.19;;;;;;;-5.22;64.57;100232.17;341645;112;2246977;-74
2020/12/10 00:08:03;;;;;;;22.93;10.42;;;;;;;-5.22;64.35;100234.81;338627;114;1961954;-73
2020/12/10 00:09:09;;;;;;;21.31;10.80;;;;;;;-5.23;64.54;100227.86;353549;114;1962004;-73
2020/12/10 00:10:15;;;;;;;20.38;10.32;;;;;;;-5.22;64.42;100228.70;343109;114;2259960;-73
2020/12/10 00:11:21;;;;;;;22.02;9.56;;;;;;;-5.22;64.36;100226.91;353843;114;1962027;-73
2020/12/10 00:12:28;;;;;;;22.60;10.51;;;;;;;-5.22;64.40;100226.06;352087;114;1962075;-73
2020/12/10 00:13:44;;;;;;;19.46;10.04;;;;;;;-5.24;64.45;100222.67;308982;112;2191906;-73
2020/12/10 00:14:53;;;;;;;21.56;10.10;;;;;;;-5.26;64.79;100219.31;364744;109;1962964;-73
2020/12/10 00:15:59;;;;;;;21.42;10.14;;;;;;;-5.26;64.68;100214.05;364920;109;1960807;-72
2020/12/10 00:17:17;;;;;;;21.64;9.61;;;;;;;-5.27;64.81;100218.44;362952;109;1962039;-73
2020/12/10 00:18:22;;;;;;;18.78;9.01;;;;;;;-5.31;64.74;100215.15;357695;111;1961967;-71
2020/12/10 00:19:28;;;;;;;19.76;9.08;;;;;;;-5.30;64.74;100208.93;359141;113;1963996;-71
2020/12/10 00:20:35;;;;;;;18.66;9.50;;;;;;;-5.28;64.80;100208.86;359025;113;1961994;-71
2020/12/10 00:21:41;;;;;;;23.68;9.56;;;;;;;-5.29;64.78;100209.80;358706;111;1961939;-72
2020/12/10 00:22:46;;;;;;;19.58;9.46;;;;;;;-5.31;64.89;100207.25;358229;111;1961045;-71
2020/12/10 00:23:51;;;;;;;20.49;9.27;;;;;;;-5.30;65.00;100208.93;330419;111;2556917;-71
2020/12/10 00:24:57;;;;;;;20.23;9.91;;;;;;;-5.30;64.93;100208.09;351353;110;1962896;-72
2020/12/10 00:26:03;;;;;;;20.79;9.73;;;;;;;-5.30;64.76;100202.83;351936;114;1961996;-72
2020/12/10 00:27:09;;;;;;;21.52;9.58;;;;;;;-5.28;64.74;100205.38;358582;109;1960901;-71
2020/12/10 00:28:14;;;;;;;20.77;9.61;;;;;;;-5.28;64.72;100208.86;322995;111;2132340;-71
2020/12/10 00:29:19;;;;;;;25.77;10.41;;;;;;;-5.28;64.82;100198.32;354577;114;1964648;-72
2020/12/10 00:30:26;;;;;;;20.34;9.14;;;;;;;-5.31;64.86;100206.41;356826;113;1962026;-71
2020/12/10 00:31:32;;;;;;;21.94;9.66;;;;;;;-5.34;65.07;100209.23;322893;113;2004885;-71
2020/12/10 00:32:39;;;;;;;20.01;10.50;;;;;;;-5.36;65.03;100203.20;359173;110;1961880;-71
2020/12/10 00:33:45;;;;;;;21.62;9.83;;;;;;;-5.37;65.31;100198.85;320536;111;2843930;-72
2020/12/10 00:34:51;;;;;;;19.93;9.37;;;;;;;-5.40;65.44;100201.67;337586;113;1961851;-71
2020/12/10 00:35:56;;;;;;;19.75;9.07;;;;;;;-5.41;65.54;100200.83;359073;111;1963940;-72
2020/12/10 00:37:02;;;;;;;21.37;9.31;;;;;;;-5.40;65.66;100205.18;357449;111;1962014;-72
2020/12/10 00:38:08;;;;;;;19.59;9.16;;;;;;;-5.41;65.34;100202.63;324127;111;2092716;-72
2020/12/10 00:39:24;;;;;;;18.98;8.71;;;;;;;-5.43;65.28;100202.70;359597;109;1962099;-72
2020/12/10 00:40:30;;;;;;;22.05;9.20;;;;;;;-5.45;65.30;100196.70;353629;111;1962116;-72
2020/12/10 00:41:35;;;;;;;20.71;9.93;;;;;;;-5.44;65.36;100206.28;337422;114;2315877;-72
2020/12/10 00:42:51;;;;;;;21.42;9.61;;;;;;;-5.43;65.33;100201.86;335491;114;1963975;-71
2020/12/10 00:43:56;;;;;;;19.91;9.89;;;;;;;-5.47;65.44;100203.84;364760;109;1961907;-74
2020/12/10 00:45:03;;;;;;;20.57;10.24;;;;;;;-5.46;65.53;100202.89;361093;111;1962825;-73
2020/12/10 00:46:08;;;;;;;20.57;10.06;;;;;;;-5.48;65.69;100202.13;360692;109;1961995;-70
2020/12/10 00:47:19;;;;;;;18.38;9.06;;;;;;;-5.49;65.60;100197.81;355025;113;1961904;-71
2020/12/10 00:48:25;;;;;;;22.87;10.42;;;;;;;-5.52;65.75;100193.58;334011;113;2415958;-70
2020/12/10 00:49:31;;;;;;;19.72;9.32;;;;;;;-5.51;65.79;100194.41;342190;111;1962892;-70
2020/12/10 00:50:38;;;;;;;18.82;10.52;;;;;;;-5.52;65.83;100198.84;361950;109;1962085;-71
2020/12/10 00:51:46;;;;;;;19.99;9.49;;;;;;;-5.53;65.85;100197.16;345459;109;2239973;-71
2020/12/10 00:52:53;;;;;;;18.69;9.09;;;;;;;-5.54;65.86;100203.34;352014;111;2907928;-72
2020/12/10 00:53:58;;;;;;;22.62;9.60;;;;;;;-5.55;65.74;100196.39;359039;108;1961879;-71
2020/12/10 00:55:04;;;;;;;21.79;10.22;;;;;;;-5.57;65.89;100192.99;361186;111;1962050;-72
2020/12/10 00:56:11;;;;;;;19.59;10.20;;;;;;;-5.54;65.79;100189.34;333531;107;2034619;-72
2020/12/10 00:57:17;;;;;;;17.93;9.09;;;;;;;-5.55;65.97;100191.12;368505;108;1961976;-72
2020/12/10 00:58:24;;;;;;;19.35;10.24;;;;;;;-5.54;65.87;100192.81;356622;113;1961992;-72
2020/12/10 00:59:30;;;;;;;21.19;10.06;;;;;;;-5.54;65.87;100184.07;336904;112;1961934;-72
2020/12/10 01:00:36;;;;;;;17.76;8.80;;;;;;;-5.55;65.83;100191.12;362117;110;1962896;-73
2020/12/10 01:01:44;;;;;;;18.84;9.57;;;;;;;-5.55;65.95;100179.76;341219;112;1961925;-72
2020/12/10 01:02:50;;;;;;;20.54;10.31;;;;;;;-5.56;65.94;100181.55;366673;110;1962005;-73
2020/12/10 01:03:56;;;;;;;18.17;8.96;;;;;;;-5.57;65.87;100176.36;327620;108;2101262;-72
2020/12/10 01:05:01;;;;;;;19.76;10.09;;;;;;;-5.56;65.90;100178.05;361553;110;1964022;-72
2020/12/10 01:06:12;;;;;;;21.25;9.61;;;;;;;-5.57;65.92;100178.99;358046;113;1961966;-72
2020/12/10 01:07:17;;;;;;;22.34;10.36;;;;;;;-5.56;65.78;100180.67;352758;108;1960821;-71
2020/12/10 01:08:22;;;;;;;17.83;9.64;;;;;;;-5.55;65.68;100179.76;339251;115;2264866;-72
2020/12/10 01:09:28;;;;;;;24.95;8.88;;;;;;;-5.56;65.79;100181.55;332603;115;1964050;-71
2020/12/10 01:10:34;;;;;;;24.73;10.11;;;;;;;-5.58;65.67;100183.41;346714;115;1961965;-72
2020/12/10 01:11:39;;;;;;;20.24;9.87;;;;;;;-5.59;65.72;100184.33;346485;117;1961920;-72
2020/12/10 01:12:44;;;;;;;18.78;9.17;;;;;;;-5.61;65.82;100180.97;320467;116;2572931;-70
2020/12/10 01:13:50;;;;;;;18.21;9.10;;;;;;;-5.62;65.87;100186.31;348945;112;1961992;-71
2020/12/10 01:14:57;;;;;;;18.29;9.64;;;;;;;-5.64;66.04;100178.49;352091;112;1964013;-71
2020/12/10 01:16:02;;;;;;;22.83;9.39;;;;;;;-5.62;65.92;100188.94;344470;112;2201975;-71
2020/12/10 01:17:08;;;;;;;21.04;9.52;;;;;;;-5.63;65.89;100184.62;354144;114;1965008;-70
2020/12/10 01:18:16;;;;;;;18.32;8.89;;;;;;;-5.64;65.91;100191.66;357758;111;1959659;-70
2020/12/10 01:19:21;;;;;;;21.18;9.54;;;;;;;-5.62;65.83;100184.52;349381;112;1962005;-71
2020/12/10 01:20:28;;;;;;;18.45;9.22;;;;;;;-5.62;65.74;100184.52;357242;111;1963943;-71
2020/12/10 01:21:35;;;;;;;21.09;9.83;;;;;;;-5.62;65.68;100181.89;323099;111;2189640;-71
2020/12/10 01:22:41;;;;;;;17.95;9.37;;;;;;;-5.63;65.68;100182.84;365012;111;1962972;-71
2020/12/10 01:23:47;;;;;;;16.84;8.23;;;;;;;-5.62;65.68;100183.68;341154;111;2838954;-71
2020/12/10 01:24:52;;;;;;;18.97;8.75;;;;;;;-5.64;65.70;100173.23;346541;109;1961962;-70
2020/12/10 01:25:58;;;;;;;19.40;9.73;;;;;;;-5.63;65.55;100188.10;362354;111;1962052;-77
2020/12/10 01:27:04;;;;;;;23.38;10.37;;;;;;;-5.60;65.51;100181.81;364735;111;1961965;-77
2020/12/10 01:28:09;;;;;;;18.03;8.78;;;;;;;-5.61;65.45;100187.99;349687;111;2303066;-77
2020/12/10 01:29:15;;;;;;;17.39;8.36;;;;;;;-5.64;65.47;100183.76;360961;111;1961904;-77
2020/12/10 01:30:26;;;;;;;18.82;9.99;;;;;;;-5.62;65.37;100179.26;364959;111;1961991;-77
2020/12/10 01:31:33;;;;;;;20.14;10.94;;;;;;;-5.63;65.33;100174.95;377382;107;1961980;-73
2020/12/10 01:32:38;;;;;;;19.06;9.19;;;;;;;-5.63;65.41;100174.10;374730;105;1963968;-73
2020/12/10 01:33:43;;;;;;;20.70;9.83;;;;;;;-5.63;65.35;100174.10;362949;105;1960821;-73
2020/12/10 01:34:49;;;;;;;23.42;10.50;;;;;;;-5.66;65.33;100177.76;356276;114;1961964;-74
2020/12/10 01:35:55;;;;;;;21.33;9.53;;;;;;;-5.66;65.30;100168.99;318434;114;2188022;-73
2020/12/10 01:37:01;;;;;;;18.91;10.46;;;;;;;-5.67;65.37;100169.94;343208;118;1960936;-74
2020/12/10 01:38:07;;;;;;;19.09;9.98;;;;;;;-5.67;65.37;100167.31;342762;116;1961942;-72
2020/12/10 01:39:13;;;;;;;20.53;10.23;;;;;;;-5.69;65.30;100162.13;310597;119;2526976;-74
2020/12/10 01:40:20;;;;;;;23.54;10.38;;;;;;;-5.70;65.37;100175.39;337471;118;1961147;-73
2020/12/10 01:41:31;;;;;;;21.46;10.16;;;;;;;-5.71;65.34;100169.28;309612;120;2602858;-73
2020/12/10 01:42:37;;;;;;;;;;;;;;;-5.72;65.41;100169.36;344415;118;1960775;-73
2020/12/10 01:43:43;;;;;;;20.78;10.02;;;;;;;-5.73;65.47;100167.68;341574;117;1961972;-73
2020/12/10 01:44:48;;;;;;;19.62;9.41;;;;;;;-5.71;65.44;100166.66;321975;117;2434013;-73
2020/12/10 01:45:53;;;;;;;20.27;9.20;;;;;;;-5.71;65.44;100171.08;323099;117;1960887;-73
2020/12/10 01:47:11;;;;;;;19.11;9.07;;;;;;;-5.72;65.44;100164.09;341111;117;1960917;-73
2020/12/10 01:48:17;;;;;;;21.66;10.10;;;;;;;-5.73;65.53;100162.42;334498;109;2016973;-73
2020/12/10 01:49:22;;;;;;;20.43;9.95;;;;;;;-5.73;65.49;100167.68;368918;109;1961918;-72
2020/12/10 01:50:29;;;;;;;21.76;10.04;;;;;;;-5.75;65.50;100173.02;349943;111;2879055;-73
2020/12/10 01:51:35;;;;;;;22.83;11.13;;;;;;;-5.76;65.54;100166.08;356769;109;1960826;-73
2020/12/10 01:52:41;;;;;;;22.67;9.39;;;;;;;-5.85;65.60;100153.44;369482;109;1960867;-73
2020/12/10 01:53:47;;;;;;;19.72;9.07;;;;;;;-5.76;65.58;100166.08;350189;109;2878005;-74
2020/12/10 01:55:04;;;;;;;21.51;10.63;;;;;;;-5.78;65.65;100173.20;357180;109;1961985;-73
2020/12/10 01:56:10;;;;;;;18.65;9.04;;;;;;;-5.78;65.72;100170.58;372753;107;1961042;-73
2020/12/10 01:57:15;;;;;;;17.29;9.40;;;;;;;-5.79;65.65;100172.36;340711;108;2555965;-73
2020/12/10 01:58:20;;;;;;;23.57;9.55;;;;;;;-5.80;65.78;100165.39;347494;107;1960676;-74
2020/12/10 01:59:27;;;;;;;23.36;8.51;;;;;;;-5.81;65.77;100173.39;353951;115;1961980;-73
2020/12/10 02:00:34;;;;;;;24.78;9.43;;;;;;;-5.82;65.71;100169.05;354709;111;1964124;-74
2020/12/10 02:01:40;;;;;;;18.08;9.70;;;;;;;-5.83;65.83;100172.63;356640;111;1962008;-74
2020/12/10 02:02:48;;;;;;;18.13;9.14;;;;;;;-5.82;65.97;100174.30;345195;113;2883983;-74
2020/12/10 02:03:54;;;;;;;22.47;9.90;;;;;;;-5.80;65.82;100177.70;359184;111;1961968;-73
2020/12/10 02:05:00;;;;;;;22.47;9.72;;;;;;;-5.81;65.78;100176.86;333254;111;2596963;-73
2020/12/10 02:06:05;;;;;;;18.22;8.82;;;;;;;-5.78;65.71;100181.09;351759;108;1961892;-74
2020/12/10 02:07:11;;;;;;;21.65;9.06;;;;;;;-5.80;65.72;100181.17;360888;111;1962101;-73
2020/12/10 02:08:16;;;;;;;19.07;9.20;;;;;;;-5.77;65.70;100186.28;363999;108;1962047;-73
2020/12/10 02:09:22;;;;;;;21.87;9.51;;;;;;;-5.78;65.71;100181.09;330586;111;2598037;-73
2020/12/10 02:10:28;;;;;;;20.98;9.84;;;;;;;-5.74;65.69;100182.63;361703;111;1961941;-73
2020/12/10 02:11:34;;;;;;;19.57;9.63;;;;;;;-5.73;65.70;100176.41;360528;108;1961894;-74
2020/12/10 02:12:41;;;;;;;21.06;9.27;;;;;;;-5.73;65.71;100171.16;326368;111;2044865;-73
2020/12/10 02:13:46;;;;;;;21.74;10.11;;;;;;;-5.75;65.76;100176.49;359708;108;1962955;-73
2020/12/10 02:14:52;;;;;;;18.89;9.16;;;;;;;-5.75;65.73;100171.23;357818;113;1962001;-73
2020/12/10 02:15:57;;;;;;;21.59;9.14;;;;;;;-5.76;65.69;100166.08;334704;112;2515996;-73
2020/12/10 02:17:05;;;;;;;22.33;9.57;;;;;;;-5.79;65.68;100164.47;363701;111;1963964;-74
2020/12/10 02:18:13;;;;;;;21.31;9.42;;;;;;;-5.80;65.70;100162.76;332352;108;2754986;-73
2020/12/10 02:19:20;;;;;;;24.64;10.18;;;;;;;-6.47;65.65;100046.60;365992;109;1962061;-74
2020/12/10 02:20:26;;;;;;;18.75;9.30;;;;;;;-5.82;65.76;100158.52;367860;110;1962031;-74
2020/12/10 02:21:33;;;;;;;18.33;9.18;;;;;;;-5.81;65.72;100162.86;365639;108;1964020;-74
2020/12/10 02:22:38;;;;;;;18.42;8.36;;;;;;;-5.83;65.89;100159.47;341666;110;2496957;-73
2020/12/10 02:23:43;;;;;;;18.02;9.43;;;;;;;-5.86;65.79;100151.76;344797;112;1962769;-72
2020/12/10 02:24:48;;;;;;;19.41;9.34;;;;;;;-5.90;65.87;100152.86;362271;108;1962990;-73
2020/12/10 02:25:55;;;;;;;19.86;8.98;;;;;;;-5.91;65.96;100159.06;363164;108;1961887;-74
2020/12/10 02:27:00;;;;;;;17.09;8.68;;;;;;;-5.93;65.92;100148.63;346486;108;2370946;-73
2020/12/10 02:28:11;;;;;;;17.33;8.98;;;;;;;-5.94;66.11;100143.50;351589;108;1961950;-74
2020/12/10 02:29:17;;;;;;;19.81;9.07;;;;;;;-5.97;66.27;100144.53;373667;108;1961970;-74
2020/12/10 02:30:23;;;;;;;19.82;9.38;;;;;;;-5.98;66.29;100137.55;348915;108;2207041;-74
2020/12/10 02:31:32;;;;;;;19.93;10.52;;;;;;;-5.99;66.20;100138.50;361541;109;1961990;-74
2020/12/10 02:32:38;;;;;;;20.14;9.67;;;;;;;-5.99;66.22;100141.97;376371;106;1962089;-74
2020/12/10 02:33:44;;;;;;;19.38;9.19;;;;;;;-6.00;66.29;100128.93;362637;110;1960588;-73
2020/12/10 02:34:50;;;;;;;17.76;9.30;;;;;;;-6.02;66.48;100133.42;326333;114;2548858;-73
2020/12/10 02:35:55;;;;;;;24.32;10.84;;;;;;;-6.02;66.42;100126.38;340767;114;1961965;-73
2020/12/10 02:37:00;;;;;;;19.63;9.36;;;;;;;-6.02;66.28;100126.38;349478;116;1961994;-73
2020/12/10 02:38:09;;;;;;;20.56;10.04;;;;;;;-6.03;66.36;100121.22;349154;116;1961983;-73
2020/12/10 02:39:16;;;;;;;20.19;9.30;;;;;;;-6.02;66.27;100121.11;343865;113;1961947;-73
2020/12/10 02:40:23;;;;;;;22.56;8.99;;;;;;;-6.01;66.32;100119.33;329144;114;2217945;-73
2020/12/10 02:41:28;;;;;;;24.63;10.56;;;;;;;-6.04;66.21;100116.88;349573;115;1961965;-73
2020/12/10 02:42:34;;;;;;;20.77;9.80;;;;;;;-6.04;66.26;100119.51;340446;108;2898685;-74
2020/12/10 02:43:41;;;;;;;17.13;8.85;;;;;;;-6.06;66.35;100118.75;368951;107;1960707;-73
2020/12/10 02:44:47;;;;;;;18.69;8.21;;;;;;;-6.04;66.25;100112.46;369882;108;1960728;-73
2020/12/10 02:45:52;;;;;;;17.11;9.19;;;;;;;-6.04;66.26;100114.25;339796;111;2514999;-74
2020/12/10 02:46:58;;;;;;;18.03;8.59;;;;;;;-6.03;66.17;100116.80;357304;111;1962037;-74
2020/12/10 02:48:04;;;;;;;18.50;7.97;;;;;;;-6.01;66.11;100116.70;361924;111;1962046;-73
2020/12/10 02:49:10;;;;;;;21.64;9.49;;;;;;;-6.03;66.15;100115.96;338213;111;2869008;-73
2020/12/10 02:50:18;;;;;;;15.03;8.53;;;;;;;-6.03;66.33;100105.44;361528;111;1960825;-74
2020/12/10 02:51:24;;;;;;;15.01;8.03;;;;;;;-6.04;66.24;100111.62;332113;111;2612955;-73
2020/12/10 02:52:30;;;;;;;23.39;9.08;;;;;;;-6.06;66.33;100106.47;363081;111;1960801;-73
2020/12/10 02:53:37;;;;;;;17.14;8.45;;;;;;;-6.06;66.25;100119.62;365135;111;1962048;-73
2020/12/10 02:54:42;;;;;;;15.98;8.37;;;;;;;-6.06;66.25;100113.48;327736;111;2053066;-73
2020/12/10 02:55:48;;;;;;;18.38;8.19;;;;;;;-6.06;66.33;100113.48;364460;111;1960662;-73
2020/12/10 02:56:55;;;;;;;16.78;7.91;;;;;;;-6.07;66.42;100114.43;339168;109;2887948;-73
2020/12/10 02:58:01;;;;;;;18.42;8.07;;;;;;;-6.06;66.50;100110.86;355115;111;1962949;-73
2020/12/10 02:59:06;;;;;;;20.22;9.22;;;;;;;-6.06;66.36;100103.84;362368;111;1962015;-73
2020/12/10 03:00:16;;;;;;;20.60;8.29;;;;;;;-6.08;66.48;100108.33;328457;111;2673032;31
2020/12/10 03:01:22;;;;;;;20.93;8.57;;;;;;;-6.09;66.45;100111.87;323204;110;2811901;-77
2020/12/10 03:02:27;;;;;;;18.36;8.49;;;;;;;-6.10;66.56;100112.83;357658;110;1961946;-77
2020/12/10 03:03:35;;;;;;;21.06;9.62;;;;;;;-6.10;66.48;100110.20;369312;110;1962898;-77
2020/12/10 03:04:40;;;;;;;19.40;8.61;;;;;;;-6.10;66.65;100118.09;320152;110;2148705;-75
2020/12/10 03:05:46;;;;;;;17.71;9.67;;;;;;;-6.08;66.49;100120.64;364832;108;1961802;-76
2020/12/10 03:06:52;;;;;;;19.18;8.72;;;;;;;-6.09;66.50;100114.51;367629;108;1961971;-76
2020/12/10 03:07:57;;;;;;;16.72;8.26;;;;;;;-6.06;66.46;100108.22;337759;109;2516980;-77
2020/12/10 03:09:03;;;;;;;18.32;8.61;;;;;;;-6.08;66.41;100116.22;348321;110;1960876;-77
2020/12/10 03:10:10;;;;;;;20.33;9.05;;;;;;;-6.09;66.39;100117.14;370007;110;1961002;-76
2020/12/10 03:11:15;;;;;;;18.53;8.10;;;;;;;-6.12;66.53;100119.95;339208;108;2234108;-77
2020/12/10 03:12:21;;;;;;;16.15;8.15;;;;;;;-6.14;66.56;100116.55;362639;112;1964921;-77
2020/12/10 03:13:27;;;;;;;16.45;8.00;;;;;;;-6.14;66.65;100121.81;360866;110;1962063;-77
2020/12/10 03:14:33;;;;;;;19.72;8.18;;;;;;;-6.13;66.59;100122.69;341720;110;2424881;-76
2020/12/10 03:15:38;;;;;;;21.64;9.39;;;;;;;-6.16;66.73;100114.98;350129;110;1962007;-76
2020/12/10 03:16:44;;;;;;;19.24;9.46;;;;;;;-6.18;66.84;100114.22;362660;110;1961812;-76
2020/12/10 03:17:50;;;;;;;16.04;9.26;;;;;;;-6.19;66.87;100118.63;363737;110;1961943;-77
2020/12/10 03:18:55;;;;;;;20.45;9.84;;;;;;;-6.21;67.08;100104.72;338517;110;2410650;-76
2020/12/10 03:20:02;;;;;;;23.31;9.83;;;;;;;-6.23;66.99;100115.31;338306;112;1962017;-77
2020/12/10 03:21:07;;;;;;;22.80;10.46;;;;;;;-6.25;67.12;100111.91;347771;109;1960884;-76
2020/12/10 03:22:19;;;;;;;18.44;9.26;;;;;;;-6.22;67.24;100119.66;330113;117;2239939;-75
2020/12/10 03:23:25;;;;;;;17.25;9.07;;;;;;;-6.20;67.16;100122.17;339336;119;1961024;-73
2020/12/10 03:24:31;;;;;;;18.71;8.32;;;;;;;-6.21;67.13;100125.75;356126;110;1960909;-73
2020/12/10 03:25:37;;;;;;;20.31;10.02;;;;;;;-6.19;66.98;100116.00;347097;110;1962031;-73
2020/12/10 03:26:43;;;;;;;21.05;10.56;;;;;;;-6.15;66.88;100120.13;362482;112;1961920;-73
2020/12/10 03:27:49;;;;;;;20.99;9.73;;;;;;;-6.16;66.96;100122.87;350055;107;2366813;-73
2020/12/10 03:28:54;;;;;;;19.61;8.62;;;;;;;-6.17;66.93;100116.73;363533;109;1962049;-73
2020/12/10 03:30:04;;;;;;;20.78;9.56;;;;;;;-6.17;67.04;100115.89;367747;105;1962003;-73
2020/12/10 03:31:10;;;;;;;20.01;10.49;;;;;;;-6.19;67.17;100113.38;378220;105;1963903;-73
2020/12/10 03:32:16;;;;;;;21.49;8.82;;;;;;;-6.19;67.13;100116.00;360831;108;2263786;-74
2020/12/10 03:33:21;;;;;;;20.27;8.28;;;;;;;-6.22;67.09;100117.03;367170;108;1961049;-73
2020/12/10 03:34:28;;;;;;;23.12;10.48;;;;;;;-6.23;67.11;100119.73;365734;107;1962929;-74
2020/12/10 03:35:34;;;;;;;22.26;10.76;;;;;;;-6.23;67.19;100111.84;351715;107;2208966;-74
2020/12/10 03:36:49;;;;;;;19.37;9.31;;;;;;;-6.24;67.23;100112.79;375807;106;1961979;-74
2020/12/10 03:37:55;;;;;;;16.92;9.67;;;;;;;-6.22;67.24;100110.89;365473;105;1960987;-73
2020/12/10 03:39:00;;;;;;;22.97;9.58;;;;;;;-6.24;67.22;100108.37;351753;113;1964042;-73
2020/12/10 03:40:06;;;;;;;19.08;9.20;;;;;;;-6.25;67.46;100097.93;315904;108;2174610;-74
2020/12/10 03:41:12;;;;;;;22.42;10.20;;;;;;;-6.26;67.40;100102.34;357447;110;1961981;-73
2020/12/10 03:42:17;;;;;;;16.23;8.93;;;;;;;-6.27;67.47;100100.67;368664;108;1961927;-73
2020/12/10 03:43:22;;;;;;;20.24;9.30;;;;;;;-6.28;67.65;100098.11;367900;107;1961953;-73
2020/12/10 03:44:28;;;;;;;19.22;9.86;;;;;;;-6.29;67.64;100093.80;355190;111;2244902;-73
2020/12/10 03:45:34;;;;;;;20.74;10.27;;;;;;;-6.28;67.76;100090.23;353550;112;1961924;-73
2020/12/10 03:46:41;;;;;;;18.91;11.11;;;;;;;-6.27;67.55;100087.52;337539;109;2511930;-73
2020/12/10 03:47:47;;;;;;;19.29;9.56;;;;;;;-6.26;67.71;100083.11;361572;109;1961951;-74
2020/12/10 03:48:52;;;;;;;20.92;10.66;;;;;;;-6.26;67.61;100086.58;363974;109;1961973;-74
2020/12/10 03:49:58;;;;;;;21.38;10.04;;;;;;;-6.26;67.59;100091.83;363394;109;1963012;-73
2020/12/10 03:51:03;;;;;;;21.72;9.84;;;;;;;-6.27;67.63;100089.28;349662;109;2267015;-74
2020/12/10 03:52:09;;;;;;;21.77;9.85;;;;;;;-6.25;67.67;100087.41;361692;108;1962957;-73
2020/12/10 03:53:26;;;;;;;23.66;9.62;;;;;;;-6.27;67.70;100086.65;355783;113;1961892;-73
2020/12/10 03:54:43;;;;;;;22.20;11.14;;;;;;;-6.26;67.83;100090.99;348055;110;1961975;-73
2020/12/10 03:55:49;;;;;;;19.59;10.17;;;;;;;-6.26;67.81;100086.58;354615;113;1962005;-73
2020/12/10 03:56:56;;;;;;;22.06;10.58;;;;;;;-6.24;67.81;100081.23;357064;111;1962969;-73
2020/12/10 03:58:01;;;;;;;34.46;12.62;;;;;;;-6.22;67.80;100076.72;356210;110;1961990;-73
2020/12/10 03:59:06;;;;;;;23.46;9.59;;;;;;;-6.21;67.85;100081.89;364384;109;1963041;-73
2020/12/10 04:00:13;;;;;;;22.23;10.70;;;;;;;-6.19;67.85;100081.83;338327;108;1963021;-74
2020/12/10 04:01:19;;;;;;;24.71;10.83;;;;;;;-6.16;67.89;100073.75;353407;115;1962994;-73
2020/12/10 04:02:24;;;;;;;20.28;10.65;;;;;;;-6.12;67.89;100072.62;352122;114;1961955;-73
2020/12/10 04:03:40;;;;;;;19.49;10.06;;;;;;;-6.10;67.90;100057.60;339606;114;2285093;-74
2020/12/10 04:04:45;;;;;;;22.44;10.77;;;;;;;-6.04;67.83;100065.13;359941;112;1962965;-73
2020/12/10 04:05:52;;;;;;;29.23;11.94;;;;;;;-6.01;67.74;100067.56;349276;113;1962056;-73
2020/12/10 04:06:57;;;;;;;24.58;10.39;;;;;;;-5.98;67.59;100058.64;335465;111;2309839;-74
2020/12/10 04:08:02;;;;;;;24.05;11.04;;;;;;;-5.97;67.41;100061.20;326837;115;1963975;-75
2020/12/10 04:09:08;;;;;;;25.57;13.02;;;;;;;-5.98;67.44;100056.89;351115;116;1961991;-73
2020/12/10 04:10:14;;;;;;;26.72;10.72;;;;;;;-5.99;67.50;100055.17;345775;118;1960890;-73
2020/12/10 04:11:19;;;;;;;19.78;10.65;;;;;;;-6.01;67.63;100064.09;328799;114;2397923;-73
2020/12/10 04:12:25;;;;;;;25.54;10.02;;;;;;;-5.99;67.53;100056.97;341892;115;1961097;-73
2020/12/10 04:13:32;;;;;;;18.01;10.01;;;;;;;-5.97;67.44;100058.57;357899;107;1962972;-77
2020/12/10 04:14:38;;;;;;;20.97;9.74;;;;;;;-5.94;67.41;100054.07;351021;110;1961806;-77
2020/12/10 04:15:44;;;;;;;24.35;10.01;;;;;;;-5.93;67.37;100050.49;371354;106;1960699;-77
2020/12/10 04:17:00;;;;;;;20.42;9.67;;;;;;;-5.92;67.41;100054.80;325459;111;2886984;-86
2020/12/10 04:18:06;;;;;;;25.88;11.00;;;;;;;-5.90;67.38;100061.66;350150;114;1961928;-86
2020/12/10 04:19:12;;;;;;;21.39;11.01;;;;;;;-5.87;67.38;100055.38;355792;112;1962233;-86
2020/12/10 04:20:18;;;;;;;23.34;10.48;;;;;;;-5.87;67.31;100055.38;329858;113;2470021;-86
2020/12/10 04:21:24;;;;;;;24.89;11.15;;;;;;;-5.84;67.27;100055.19;349387;114;1963008;-86
2020/12/10 04:22:32;;;;;;;19.69;11.07;;;;;;;-5.82;67.27;100050.66;331506;121;1961826;-87
2020/12/10 04:23:37;;;;;;;21.77;10.15;;;;;;;-5.80;67.25;100046.16;337933;118;1961985;-86
2020/12/10 04:24:43;;;;;;;20.90;10.54;;;;;;;-5.76;67.22;100053.78;343115;117;1961894;-86
2020/12/10 04:25:54;;;;;;;18.90;9.18;;;;;;;-5.73;67.13;100051.91;343852;117;1961916;-87
2020/12/10 04:27:00;;;;;;;17.77;9.79;;;;;;;-5.69;67.07;100054.23;336032;116;1960909;-85
2020/12/10 04:28:05;;;;;;;19.36;9.84;;;;;;;-5.63;66.93;100053.05;342895;118;1961893;-86
2020/12/10 04:29:13;;;;;;;24.71;11.52;;;;;;;-5.58;66.89;100045.72;347681;117;1960979;-85
2020/12/10 04:30:21;;;;;;;28.12;11.36;;;;;;;-5.56;66.83;100051.70;344487;117;1960737;-87
2020/12/10 04:31:26;;;;;;;21.88;10.14;;;;;;;-5.52;66.76;100054.06;299649;122;2098584;-86
2020/12/10 04:32:34;;;;;;;22.64;9.14;;;;;;;-5.48;66.72;100053.87;342291;117;1962233;-86
2020/12/10 04:33:41;;;;;;;24.36;10.87;;;;;;;-5.46;66.49;100049.37;342130;118;1961015;-85
2020/12/10 04:34:46;;;;;;;20.31;9.81;;;;;;;-5.41;66.52;100045.50;339120;116;1960948;-86
2020/12/10 04:35:53;;;;;;;26.28;11.52;;;;;;;-5.37;66.38;100048.78;334610;117;2864892;-86
2020/12/10 04:36:58;;;;;;;30.78;10.46;;;;;;;-5.33;66.39;100048.51;345219;117;1962022;-86
2020/12/10 04:38:05;;;;;;;24.56;9.75;;;;;;;-5.30;66.24;100044.84;343749;117;1960829;-87
2020/12/10 04:39:11;;;;;;;21.64;9.71;;;;;;;-5.26;66.16;100048.98;328556;114;2310865;-86
2020/12/10 04:40:17;;;;;;;27.89;12.13;;;;;;;-5.23;66.15;100046.16;350833;110;1961963;-77
2020/12/10 04:41:26;;;;;;;22.83;10.67;;;;;;;-5.19;66.08;100054.70;362301;112;1962007;-76
2020/12/10 04:42:32;;;;;;;23.47;9.67;;;;;;;-5.16;66.00;100063.27;362364;112;1961905;-75
2020/12/10 04:43:38;;;;;;;23.60;10.36;;;;;;;-5.13;65.78;100054.33;341818;112;2363978;-75
2020/12/10 04:44:46;;;;;;;19.21;9.46;;;;;;;-5.09;65.75;100059.29;342217;112;1961981;-76
2020/12/10 04:46:06;;;;;;;27.22;9.88;;;;;;;-5.07;65.65;100056.57;324380;113;2634928;-76
2020/12/10 04:47:13;;;;;;;22.76;11.57;;;;;;;-5.03;65.56;100054.58;343386;116;1960957;-76
2020/12/10 04:48:19;;;;;;;24.44;11.76;;;;;;;-5.00;65.37;100057.02;345261;118;1962935;-76
2020/12/10 04:49:24;;;;;;;28.31;11.51;;;;;;;-5.00;65.21;100052.61;311546;117;2074859;-76
2020/12/10 04:50:35;;;;;;;23.93;10.37;;;;;;;-4.98;65.35;100060.41;342118;116;1962039;-77
2020/12/10 04:51:42;;;;;;;29.67;12.37;;;;;;;-4.97;65.35;100057.69;341636;117;1964004;-76
2020/12/10 04:52:48;;;;;;;26.58;12.43;;;;;;;-4.93;65.23;100058.33;320367;116;1960820;-77
2020/12/10 04:54:08;;;;;;;28.31;12.81;;;;;;;-4.91;65.23;100059.08;347359;116;1960906;-77
2020/12/10 04:55:14;;;;;;;28.98;12.64;;;;;;;-4.89;65.17;100051.93;372377;107;1962936;-76
2020/12/10 04:56:20;;;;;;;38.24;13.30;;;;;;;-4.86;65.09;100052.56;360190;107;1964772;-78
2020/12/10 04:57:29;;;;;;;25.11;12.61;;;;;;;-4.83;65.19;100050.69;373840;107;1960900;-77
2020/12/10 04:58:35;;;;;;;28.87;13.08;;;;;;;-4.81;65.03;100047.02;375843;107;1960986;-76